createdAt,value
2017-07-14T00:01:13.309Z,4.60
2017-07-14T00:03:41.876Z,4.17
2017-07-14T00:06:10.341Z,3.70
2017-07-14T00:08:38.789Z,4.00
2017-07-14T00:11:07.985Z,4.70
2017-07-14T00:13:37.220Z,3.67
2017-07-14T00:16:06.690Z,4.30
2017-07-14T00:18:35.892Z,4.50
2017-07-14T00:21:05.084Z,3.80
2017-07-14T00:23:34.292Z,3.80
2017-07-14T00:26:03.495Z,4.33
2017-07-14T00:28:32.213Z,3.90
2017-07-14T00:31:00.441Z,3.40
2017-07-14T00:33:29.665Z,4.27
2017-07-14T00:35:58.084Z,3.83
2017-07-14T00:38:26.508Z,3.67
2017-07-14T00:40:55.820Z,3.60
2017-07-14T00:43:25.032Z,3.00
2017-07-14T00:45:53.461Z,3.43
2017-07-14T00:48:21.972Z,3.07
2017-07-14T00:50:51.176Z,3.47
2017-07-14T00:53:20.372Z,3.80
2017-07-14T00:55:49.644Z,4.00
2017-07-14T00:58:18.076Z,4.90
2017-07-14T01:00:46.778Z,3.73
2017-07-14T01:03:15.250Z,3.40
2017-07-14T01:05:43.593Z,4.00
2017-07-14T01:08:12.058Z,2.53
2017-07-14T01:10:40.738Z,2.97
2017-07-14T01:13:09.208Z,2.50
2017-07-14T01:15:37.643Z,2.47
2017-07-14T01:18:06.856Z,2.80
2017-07-14T01:20:35.284Z,3.70
2017-07-14T01:23:03.739Z,4.13
2017-07-14T01:25:33.295Z,3.73
2017-07-14T01:28:01.788Z,4.17
2017-07-14T01:30:30.976Z,4.57
2017-07-14T01:32:59.429Z,4.03
2017-07-14T01:35:27.844Z,4.00
2017-07-14T01:37:57.060Z,3.90
2017-07-14T01:40:25.911Z,4.70
2017-07-14T01:42:54.362Z,4.37
2017-07-14T01:45:22.816Z,4.13
2017-07-14T01:47:51.245Z,4.70
2017-07-14T01:50:19.331Z,4.60
2017-07-14T01:52:47.816Z,4.70
2017-07-14T01:55:15.903Z,4.60
2017-07-14T01:57:44.332Z,4.47
2017-07-14T02:00:12.677Z,4.07
2017-07-14T02:02:40.759Z,4.93
2017-07-14T02:05:09.599Z,5.47
2017-07-14T02:07:37.676Z,4.30
2017-07-14T02:10:06.103Z,4.50
2017-07-14T02:12:34.942Z,4.57
2017-07-14T02:15:03.644Z,4.63
2017-07-14T02:17:32.077Z,4.70
2017-07-14T02:20:00.178Z,5.10
2017-07-14T02:22:27.909Z,5.27
2017-07-14T02:24:56.012Z,5.47
2017-07-14T02:27:24.436Z,4.90
2017-07-14T02:29:52.852Z,4.50
2017-07-14T02:32:21.299Z,4.57
2017-07-14T02:34:50.631Z,4.70
2017-07-14T02:37:18.711Z,4.60
2017-07-14T02:39:46.903Z,5.63
2017-07-14T02:42:15.336Z,5.00
2017-07-14T02:44:43.833Z,4.70
2017-07-14T02:47:11.969Z,4.53
2017-07-14T02:49:40.403Z,4.33
2017-07-14T02:52:08.841Z,4.27
2017-07-14T02:54:36.910Z,4.00
2017-07-14T02:57:05.011Z,4.60
2017-07-14T02:59:34.221Z,4.53
2017-07-14T03:02:02.538Z,4.10
2017-07-14T03:04:30.979Z,4.20
2017-07-14T03:07:00.156Z,4.00
2017-07-14T03:09:27.892Z,4.63
2017-07-14T03:11:56.115Z,4.93
2017-07-14T03:14:23.869Z,4.57
2017-07-14T03:16:53.070Z,4.20
2017-07-14T03:19:21.415Z,4.37
2017-07-14T03:21:49.870Z,4.57
2017-07-14T03:24:17.934Z,4.50
2017-07-14T03:26:46.387Z,4.80
2017-07-14T03:29:15.252Z,5.03
2017-07-14T03:31:43.343Z,4.40
2017-07-14T03:34:11.843Z,4.07
2017-07-14T03:36:40.692Z,5.03
2017-07-14T03:39:08.761Z,5.40
2017-07-14T03:41:37.222Z,4.53
2017-07-14T03:44:04.965Z,4.40
2017-07-14T03:46:34.251Z,4.50
2017-07-14T03:49:03.444Z,5.23
2017-07-14T03:51:32.661Z,4.07
2017-07-14T03:54:01.082Z,4.80
2017-07-14T03:56:29.515Z,4.57
2017-07-14T03:58:57.268Z,4.70
2017-07-14T04:01:25.620Z,5.17
2017-07-14T04:03:54.176Z,4.33
2017-07-14T04:06:22.611Z,4.70
2017-07-14T04:08:51.811Z,4.63
2017-07-14T04:11:20.247Z,4.50
2017-07-14T04:13:48.676Z,4.37
2017-07-14T04:16:17.887Z,4.90
2017-07-14T04:18:47.083Z,4.93
2017-07-14T04:21:15.923Z,4.70
2017-07-14T04:23:44.359Z,4.77
2017-07-14T04:26:12.795Z,5.83
2017-07-14T04:28:41.234Z,5.37
2017-07-14T04:31:09.661Z,4.37
2017-07-14T04:33:38.480Z,4.27
2017-07-14T04:36:07.683Z,4.60
2017-07-14T04:38:36.924Z,4.60
2017-07-14T04:41:05.361Z,4.30
2017-07-14T04:43:34.548Z,4.50
2017-07-14T04:46:02.984Z,4.27
2017-07-14T04:48:31.467Z,4.70
2017-07-14T04:50:59.897Z,4.27
2017-07-14T04:53:28.329Z,4.37
2017-07-14T04:55:56.780Z,4.70
2017-07-14T04:58:26.226Z,4.60
2017-07-14T05:00:54.704Z,5.20
2017-07-14T05:03:23.376Z,4.50
2017-07-14T05:05:51.951Z,3.80
2017-07-14T05:08:20.531Z,4.30
2017-07-14T05:10:49.026Z,4.40
2017-07-14T05:13:17.451Z,4.10
2017-07-14T05:15:45.894Z,4.40
2017-07-14T05:18:14.344Z,3.60
2017-07-14T05:20:43.571Z,3.90
2017-07-14T05:23:12.015Z,3.80
2017-07-14T05:25:41.220Z,4.30
2017-07-14T05:28:10.459Z,3.87
2017-07-14T05:30:39.144Z,3.40
2017-07-14T05:33:07.711Z,3.53
2017-07-14T05:35:37.055Z,3.90
2017-07-14T05:38:05.490Z,3.30
2017-07-14T05:40:33.910Z,3.50
2017-07-14T05:43:02.749Z,3.20
2017-07-14T05:45:31.989Z,3.73
2017-07-14T05:48:00.427Z,3.40
2017-07-14T05:50:29.807Z,3.27
2017-07-14T05:52:58.303Z,3.37
2017-07-14T05:55:26.752Z,3.30
2017-07-14T05:57:55.192Z,4.03
2017-07-14T06:00:23.636Z,3.63
2017-07-14T06:02:52.065Z,4.10
2017-07-14T06:05:20.512Z,4.40
2017-07-14T06:07:48.955Z,3.80
2017-07-14T06:10:17.459Z,3.30
2017-07-14T06:12:45.921Z,4.00
2017-07-14T06:15:15.368Z,3.40
2017-07-14T06:17:44.801Z,3.60
2017-07-14T06:20:13.262Z,3.33
2017-07-14T06:22:42.475Z,3.20
2017-07-14T06:25:10.903Z,3.33
2017-07-14T06:27:39.326Z,3.00
2017-07-14T06:30:08.527Z,3.00
2017-07-14T06:32:37.736Z,3.40
2017-07-14T06:35:06.249Z,3.20
2017-07-14T06:37:36.541Z,2.50
2017-07-14T06:40:05.731Z,2.97
2017-07-14T06:42:34.931Z,3.80
2017-07-14T06:45:04.159Z,3.17
2017-07-14T06:47:32.619Z,3.37
2017-07-14T06:50:01.326Z,3.20
2017-07-14T06:52:29.926Z,2.83
2017-07-14T06:54:58.371Z,2.80
2017-07-14T06:57:27.148Z,3.07
2017-07-14T06:59:56.359Z,2.70
2017-07-14T07:02:25.579Z,2.87
2017-07-14T07:04:54.112Z,2.70
2017-07-14T07:07:22.631Z,3.00
2017-07-14T07:09:51.067Z,2.77
2017-07-14T07:12:19.560Z,3.53
2017-07-14T07:14:47.983Z,2.70
2017-07-14T07:17:16.515Z,2.60
2017-07-14T07:19:44.947Z,2.37
2017-07-14T07:22:13.659Z,2.70
2017-07-14T07:24:42.098Z,2.60
2017-07-14T07:27:11.420Z,2.50
2017-07-14T07:29:40.607Z,3.10
2017-07-14T07:32:09.957Z,2.70
2017-07-14T07:34:38.393Z,2.80
2017-07-14T07:37:07.598Z,2.40
2017-07-14T07:39:36.041Z,2.60
2017-07-14T07:42:04.669Z,2.47
2017-07-14T07:44:33.115Z,2.60
2017-07-14T07:47:07.427Z,2.87
2017-07-14T07:49:35.949Z,2.50
2017-07-14T07:52:04.401Z,2.73
2017-07-14T07:54:32.849Z,2.53
2017-07-14T07:57:01.388Z,3.47
2017-07-14T07:59:30.579Z,3.27
2017-07-14T08:01:59.792Z,2.93
2017-07-14T08:04:28.987Z,2.80
2017-07-14T08:06:58.179Z,2.77
2017-07-14T08:09:27.411Z,3.10
2017-07-14T08:11:55.831Z,3.30
2017-07-14T08:14:24.287Z,3.07
2017-07-14T08:16:52.731Z,3.37
2017-07-14T08:19:22.036Z,3.13
2017-07-14T08:21:51.223Z,2.70
2017-07-14T08:24:20.427Z,3.47
2017-07-14T08:26:49.666Z,3.60
2017-07-14T08:29:18.382Z,3.10
2017-07-14T08:31:46.803Z,3.40
2017-07-14T08:34:15.240Z,3.17
2017-07-14T08:36:43.701Z,3.47
2017-07-14T08:39:12.148Z,3.77
2017-07-14T08:41:40.591Z,3.27
2017-07-14T08:44:09.083Z,2.97
2017-07-14T08:46:37.520Z,3.37
2017-07-14T08:49:06.020Z,3.30
2017-07-14T08:51:34.475Z,3.60
2017-07-14T08:54:02.907Z,3.03
2017-07-14T08:56:31.344Z,2.80
2017-07-14T08:59:00.039Z,2.80
2017-07-14T09:01:28.475Z,2.93
2017-07-14T09:03:57.766Z,3.10
2017-07-14T09:06:26.196Z,3.00
2017-07-14T09:08:54.659Z,3.43
2017-07-14T09:11:23.100Z,3.60
2017-07-14T09:13:51.559Z,3.37
2017-07-14T09:16:19.995Z,2.87
2017-07-14T09:18:49.210Z,2.77
2017-07-14T09:21:17.747Z,3.00
2017-07-14T09:23:46.171Z,3.03
2017-07-14T09:26:14.627Z,2.80
2017-07-14T09:28:43.327Z,2.60
2017-07-14T09:31:12.527Z,2.30
2017-07-14T09:33:41.840Z,2.80
2017-07-14T09:36:10.275Z,2.70
2017-07-14T09:38:38.703Z,2.67
2017-07-14T09:41:07.142Z,2.57
2017-07-14T09:43:35.567Z,2.67
2017-07-14T09:46:04.008Z,3.13
2017-07-14T09:48:32.551Z,3.30
2017-07-14T09:51:01.001Z,2.80
2017-07-14T09:53:29.697Z,3.00
2017-07-14T09:55:58.900Z,2.87
2017-07-14T09:58:27.341Z,2.47
2017-07-14T10:00:56.027Z,2.20
2017-07-14T10:03:24.470Z,2.73
2017-07-14T10:05:52.888Z,2.33
2017-07-14T10:08:21.310Z,2.53
2017-07-14T10:10:49.843Z,2.77
2017-07-14T10:13:18.266Z,2.40
2017-07-14T10:15:47.484Z,2.00
2017-07-14T10:18:16.020Z,2.10
2017-07-14T10:20:44.671Z,2.30
2017-07-14T10:23:13.114Z,2.90
2017-07-14T10:25:41.922Z,2.90
2017-07-14T10:28:10.414Z,2.93
2017-07-14T10:30:39.129Z,3.10
2017-07-14T10:33:08.580Z,2.70
2017-07-14T10:35:37.748Z,2.73
2017-07-14T10:38:06.168Z,3.40
2017-07-14T10:40:34.683Z,3.40
2017-07-14T10:43:03.139Z,3.63
2017-07-14T10:45:31.565Z,3.37
2017-07-14T10:48:00.017Z,3.57
2017-07-14T10:50:28.475Z,3.30
2017-07-14T10:52:57.685Z,3.63
2017-07-14T10:55:26.834Z,2.97
2017-07-14T10:57:55.270Z,2.90
2017-07-14T11:00:23.850Z,3.20
2017-07-14T11:02:52.274Z,2.63
2017-07-14T11:05:21.735Z,2.77
2017-07-14T11:07:50.187Z,2.70
2017-07-14T11:10:19.424Z,2.47
2017-07-14T11:12:47.923Z,2.67
2017-07-14T11:15:16.368Z,2.43
2017-07-14T11:17:44.811Z,2.40
2017-07-14T11:20:13.268Z,2.70
2017-07-14T11:22:41.731Z,2.03
2017-07-14T11:25:10.172Z,2.17
2017-07-14T11:27:38.620Z,2.70
2017-07-14T11:30:08.192Z,2.13
2017-07-14T11:32:36.674Z,2.63
2017-07-14T11:35:05.988Z,2.00
2017-07-14T11:37:34.452Z,2.80
2017-07-14T11:40:03.314Z,2.20
2017-07-14T11:42:32.755Z,2.40
2017-07-14T11:45:02.057Z,1.87
2017-07-14T11:47:30.757Z,2.00
2017-07-14T11:49:59.452Z,2.27
2017-07-14T11:52:28.008Z,2.50
2017-07-14T11:54:57.203Z,2.23
2017-07-14T11:57:26.398Z,2.40
2017-07-14T11:59:55.089Z,2.20
2017-07-14T12:02:24.304Z,2.17
2017-07-14T12:04:53.004Z,2.83
2017-07-14T12:07:22.603Z,2.63
2017-07-14T12:09:51.208Z,2.80
2017-07-14T12:12:19.640Z,2.20
2017-07-14T12:14:48.079Z,2.43
2017-07-14T12:17:16.505Z,2.40
2017-07-14T12:19:44.948Z,2.77
2017-07-14T12:22:13.380Z,2.10
2017-07-14T12:24:42.259Z,2.40
2017-07-14T12:27:10.783Z,2.70
2017-07-14T12:29:39.241Z,2.50
2017-07-14T12:32:08.436Z,2.30
2017-07-14T12:34:37.648Z,2.33
2017-07-14T12:37:06.064Z,2.57
2017-07-14T12:39:34.513Z,2.10
2017-07-14T12:42:02.943Z,2.67
2017-07-14T12:44:31.396Z,2.57
2017-07-14T12:46:59.828Z,2.10
2017-07-14T12:49:28.258Z,2.23
2017-07-14T12:51:56.724Z,2.10
2017-07-14T12:54:25.160Z,2.43
2017-07-14T12:56:53.616Z,2.10
2017-07-14T12:59:22.043Z,2.80
2017-07-14T13:01:51.247Z,2.80
2017-07-14T13:04:20.520Z,2.30
2017-07-14T13:06:48.946Z,2.40
2017-07-14T13:09:17.623Z,2.50
2017-07-14T13:11:46.837Z,2.17
2017-07-14T13:14:15.308Z,2.20
2017-07-14T13:16:43.751Z,2.67
2017-07-14T13:19:12.189Z,2.47
2017-07-14T13:21:40.860Z,2.47
2017-07-14T13:24:10.155Z,3.07
2017-07-14T13:26:39.403Z,2.37
2017-07-14T13:29:07.846Z,2.30
2017-07-14T13:31:36.272Z,2.50
2017-07-14T13:34:04.691Z,2.80
2017-07-14T13:36:33.908Z,2.90
2017-07-14T13:39:02.355Z,3.37
2017-07-14T13:41:30.817Z,2.93
2017-07-14T13:43:59.353Z,3.17
2017-07-14T13:46:28.067Z,2.70
2017-07-14T13:48:56.507Z,2.63
2017-07-14T13:51:25.720Z,2.93
2017-07-14T13:53:54.928Z,2.80
2017-07-14T13:56:23.359Z,2.40
2017-07-14T13:58:51.822Z,2.67
2017-07-14T14:01:20.259Z,2.47
2017-07-14T14:03:49.458Z,1.90
2017-07-14T14:06:18.284Z,2.50
2017-07-14T14:08:46.728Z,1.83
2017-07-14T14:11:15.928Z,1.90
2017-07-14T14:13:44.754Z,1.80
2017-07-14T14:16:13.192Z,1.70
2017-07-14T14:18:42.408Z,2.13
2017-07-14T14:21:10.907Z,2.10
2017-07-14T14:23:39.343Z,2.43
2017-07-14T14:26:07.785Z,2.07
2017-07-14T14:28:36.225Z,2.13
2017-07-14T14:31:05.469Z,2.30
2017-07-14T14:33:34.292Z,2.50
2017-07-14T14:36:02.852Z,2.77
2017-07-14T14:38:31.766Z,2.50
2017-07-14T14:41:00.992Z,2.63
2017-07-14T14:43:30.229Z,2.63
2017-07-14T14:45:58.659Z,2.50
2017-07-14T14:48:27.864Z,2.30
2017-07-14T14:50:57.131Z,2.90
2017-07-14T14:53:25.558Z,2.23
2017-07-14T14:55:54.016Z,2.63
2017-07-14T14:58:23.981Z,2.30
2017-07-14T15:00:52.409Z,2.57
2017-07-14T15:03:21.118Z,3.40
2017-07-14T15:05:50.368Z,5.97
2017-07-14T15:08:19.335Z,3.73
2017-07-14T15:10:48.528Z,5.43
2017-07-14T15:13:17.212Z,5.40
2017-07-14T15:15:46.422Z,4.90
2017-07-14T15:18:15.371Z,6.10
2017-07-14T15:20:44.583Z,6.53
2017-07-14T15:23:13.404Z,7.50
2017-07-14T15:25:42.252Z,7.40
2017-07-14T15:28:10.711Z,9.57
2017-07-14T15:30:39.493Z,5.97
2017-07-14T15:33:08.340Z,8.40
2017-07-14T15:35:37.524Z,8.93
2017-07-14T15:38:06.355Z,6.20
2017-07-14T15:40:34.786Z,7.40
2017-07-14T15:43:03.610Z,8.43
2017-07-14T15:45:32.831Z,6.70
2017-07-14T15:48:01.675Z,8.63
2017-07-14T15:50:30.867Z,8.20
2017-07-14T15:52:59.716Z,6.23
2017-07-14T15:55:28.933Z,7.10
2017-07-14T15:57:57.747Z,7.43
2017-07-14T16:00:26.148Z,7.43
2017-07-14T16:02:54.960Z,5.70
2017-07-14T16:05:24.224Z,7.10
2017-07-14T16:07:52.890Z,7.07
2017-07-14T16:10:22.105Z,8.20
2017-07-14T16:12:50.918Z,7.17
2017-07-14T16:15:19.601Z,7.33
2017-07-14T16:17:48.800Z,7.43
2017-07-14T16:20:18.011Z,7.50
2017-07-14T16:22:46.463Z,7.50
2017-07-14T16:25:15.313Z,8.43
2017-07-14T16:27:44.179Z,9.00
2017-07-14T16:30:13.376Z,8.03
2017-07-14T16:32:41.823Z,6.73
2017-07-14T16:35:10.266Z,8.13
2017-07-14T16:37:38.695Z,7.10
2017-07-14T16:40:07.547Z,6.60
2017-07-14T16:42:36.370Z,6.90
2017-07-14T16:45:04.825Z,6.90
2017-07-14T16:47:33.682Z,7.20
2017-07-14T16:50:02.497Z,5.43
2017-07-14T16:52:30.941Z,4.07
2017-07-14T16:54:59.769Z,3.30
2017-07-14T16:57:28.596Z,3.63
2017-07-14T16:59:57.172Z,3.10
2017-07-14T17:02:26.369Z,2.93
2017-07-14T17:04:54.860Z,2.47
2017-07-14T17:07:23.712Z,2.70
2017-07-14T17:09:52.158Z,3.10
2017-07-14T17:12:20.597Z,2.23
2017-07-14T17:14:49.047Z,1.70
2017-07-14T17:17:17.887Z,2.03
2017-07-14T17:19:47.077Z,1.67
2017-07-14T17:22:15.936Z,2.00
2017-07-14T17:24:44.784Z,2.00
2017-07-14T17:27:13.206Z,1.77
2017-07-14T17:29:41.675Z,1.90
2017-07-14T17:32:10.533Z,2.17
2017-07-14T17:34:39.214Z,2.10
2017-07-14T17:37:07.695Z,2.30
2017-07-14T17:39:36.125Z,2.20
2017-07-14T17:42:04.951Z,2.30
2017-07-14T17:44:33.369Z,2.00
2017-07-14T17:47:02.207Z,2.07
2017-07-14T17:49:30.660Z,2.43
2017-07-14T17:51:59.405Z,2.33
2017-07-14T17:54:28.207Z,2.60
2017-07-14T17:56:57.436Z,2.80
2017-07-14T17:59:26.283Z,3.00
2017-07-14T18:01:55.484Z,2.70
2017-07-14T18:04:24.327Z,2.60
2017-07-14T18:06:53.258Z,2.53
2017-07-14T18:09:21.715Z,2.87
2017-07-14T18:11:50.559Z,2.60
2017-07-14T18:14:19.805Z,2.90
2017-07-14T18:16:48.643Z,2.93
2017-07-14T18:19:18.696Z,2.53
2017-07-14T18:21:47.671Z,3.03
2017-07-14T18:24:16.888Z,2.60
2017-07-14T18:26:45.720Z,2.93
2017-07-14T18:29:14.167Z,2.70
2017-07-14T18:31:43.764Z,2.70
2017-07-14T18:34:12.206Z,2.83
2017-07-14T18:36:41.064Z,3.47
2017-07-14T18:39:09.501Z,3.13
2017-07-14T18:41:38.710Z,2.93
2017-07-14T18:44:07.914Z,3.33
2017-07-14T18:46:37.238Z,2.80
2017-07-14T18:49:07.055Z,2.87
2017-07-14T18:51:36.273Z,2.93
2017-07-14T18:54:05.123Z,3.20
2017-07-14T18:56:34.318Z,3.50
2017-07-14T18:59:03.551Z,3.37
2017-07-14T19:01:33.125Z,2.90
2017-07-14T19:04:02.339Z,3.00
2017-07-14T19:06:31.229Z,3.10
2017-07-14T19:09:00.530Z,3.70
2017-07-14T19:11:29.427Z,3.17
2017-07-14T19:13:58.312Z,3.00
2017-07-14T19:16:27.484Z,3.30
2017-07-14T19:18:56.328Z,3.87
2017-07-14T19:21:24.784Z,3.50
2017-07-14T19:23:53.623Z,3.30
2017-07-14T19:26:22.449Z,3.10
2017-07-14T19:28:51.683Z,3.27
2017-07-14T19:31:20.528Z,3.13
2017-07-14T19:33:48.957Z,3.63
2017-07-14T19:36:18.432Z,3.13
2017-07-14T19:38:47.636Z,2.70
2017-07-14T19:41:16.481Z,3.20
2017-07-14T19:43:44.922Z,3.30
2017-07-14T19:46:13.870Z,3.03
2017-07-14T19:48:42.703Z,2.83
2017-07-14T19:51:11.924Z,2.80
2017-07-14T19:53:40.792Z,2.33
2017-07-14T19:56:09.722Z,3.50
2017-07-14T19:58:38.596Z,3.30
2017-07-14T20:01:07.798Z,2.70
2017-07-14T20:03:36.620Z,2.70
2017-07-14T20:06:06.580Z,2.43
2017-07-14T20:08:35.732Z,2.07
2017-07-14T20:11:04.588Z,2.93
2017-07-14T20:13:33.792Z,2.40
2017-07-14T20:16:02.664Z,2.90
2017-07-14T20:18:31.582Z,2.47
2017-07-14T20:21:00.821Z,2.80
2017-07-14T20:23:29.491Z,2.33
2017-07-14T20:25:57.921Z,2.73
2017-07-14T20:28:26.756Z,2.40
2017-07-14T20:30:55.692Z,2.40
2017-07-14T20:33:24.548Z,2.40
2017-07-14T20:35:52.817Z,2.50
2017-07-14T20:38:21.491Z,2.77
2017-07-14T20:40:49.920Z,2.43
2017-07-14T20:43:18.740Z,2.40
2017-07-14T20:45:47.556Z,2.50
2017-07-14T20:48:16.777Z,2.20
2017-07-14T20:50:45.864Z,2.60
2017-07-14T20:53:14.693Z,2.40
2017-07-14T20:55:43.544Z,2.73
2017-07-14T20:58:12.005Z,2.57
2017-07-14T21:00:40.818Z,2.13
2017-07-14T21:03:09.512Z,2.80
2017-07-14T21:05:38.729Z,2.40
2017-07-14T21:08:07.920Z,2.47
2017-07-14T21:10:36.779Z,2.57
2017-07-14T21:13:05.616Z,2.33
2017-07-14T21:15:34.077Z,2.87
2017-07-14T21:18:02.908Z,2.67
2017-07-14T21:20:31.756Z,2.67
2017-07-14T21:23:00.942Z,2.30
2017-07-14T21:25:29.784Z,2.90
2017-07-14T21:27:58.988Z,2.40
2017-07-14T21:30:28.219Z,2.87
2017-07-14T21:32:57.034Z,2.77
2017-07-14T21:35:25.469Z,2.73
2017-07-14T21:37:54.328Z,2.70
2017-07-14T21:40:23.147Z,2.73
2017-07-14T21:42:52.424Z,3.10
2017-07-14T21:45:21.244Z,2.60
2017-07-14T21:47:50.453Z,2.77
2017-07-14T21:50:19.289Z,3.13
2017-07-14T21:52:48.556Z,3.20
2017-07-14T21:55:17.505Z,4.20
2017-07-14T21:57:46.355Z,3.50
2017-07-14T22:00:15.565Z,4.13
2017-07-14T22:02:44.036Z,3.73
2017-07-14T22:05:13.480Z,4.00
2017-07-14T22:07:42.679Z,4.10
2017-07-14T22:10:11.989Z,3.70
2017-07-14T22:12:40.827Z,4.27
2017-07-14T22:15:09.688Z,4.60
2017-07-14T22:17:38.535Z,4.10
2017-07-14T22:20:07.792Z,4.17
2017-07-14T22:22:36.641Z,4.00
2017-07-14T22:25:05.459Z,3.43
2017-07-14T22:27:34.659Z,4.27
2017-07-14T22:30:03.851Z,3.60
2017-07-14T22:32:32.687Z,3.70
2017-07-14T22:35:01.888Z,3.83
2017-07-14T22:37:30.728Z,4.30
2017-07-14T22:40:00.175Z,4.10
2017-07-14T22:42:29.376Z,4.77
2017-07-14T22:44:58.579Z,4.97
2017-07-14T22:47:27.021Z,4.57
2017-07-14T22:49:56.244Z,4.60
2017-07-14T22:52:25.079Z,4.30
2017-07-14T22:54:54.279Z,4.43
2017-07-14T22:57:23.128Z,5.20
2017-07-14T22:59:51.956Z,4.43
2017-07-14T23:02:22.008Z,5.27
2017-07-14T23:04:50.845Z,5.40
2017-07-14T23:07:20.783Z,7.20
2017-07-14T23:09:49.616Z,6.53
2017-07-14T23:12:18.075Z,6.60
2017-07-14T23:14:47.303Z,7.60
2017-07-14T23:17:15.728Z,7.93
2017-07-14T23:19:44.299Z,10.13
2017-07-14T23:22:12.750Z,11.13
2017-07-14T23:24:41.192Z,11.93
2017-07-14T23:27:10.383Z,11.47
2017-07-14T23:29:39.572Z,13.30
2017-07-14T23:32:08.165Z,13.30
2017-07-14T23:34:36.610Z,14.50
2017-07-14T23:37:05.051Z,17.80
2017-07-14T23:39:33.504Z,18.67
2017-07-14T23:42:01.951Z,19.63
2017-07-14T23:44:30.375Z,22.70
2017-07-14T23:46:59.696Z,20.20
2017-07-14T23:49:29.004Z,21.17
2017-07-14T23:51:57.464Z,21.00
2017-07-14T23:54:26.676Z,21.47
2017-07-14T23:56:55.881Z,22.67
2017-07-14T23:59:24.316Z,21.70
